sensor_id;sensor_type;location;lat;lon;timestamp;P1;durP1;ratioP1;P2;durP2;ratioP2
58412;SDS011;44209;52.952;6.790;2023-12-22T00:01:30;20.07;;;4.43;;
58412;SDS011;44209;52.952;6.790;2023-12-22T00:03:56;14.20;;;3.63;;
58412;SDS011;44209;52.952;6.790;2023-12-22T00:06:22;15.63;;;4.17;;
58412;SDS011;44209;52.952;6.790;2023-12-22T00:08:47;20.90;;;4.93;;
58412;SDS011;44209;52.952;6.790;2023-12-22T00:11:13;23.20;;;4.90;;
58412;SDS011;44209;52.952;6.790;2023-12-22T00:13:39;19.97;;;4.20;;
58412;SDS011;44209;52.952;6.790;2023-12-22T00:16:05;22.23;;;5.10;;
58412;SDS011;44209;52.952;6.790;2023-12-22T00:18:30;18.10;;;4.97;;
58412;SDS011;44209;52.952;6.790;2023-12-22T00:20:56;19.67;;;4.90;;
58412;SDS011;44209;52.952;6.790;2023-12-22T00:23:22;23.60;;;4.93;;
58412;SDS011;44209;52.952;6.790;2023-12-22T00:25:48;18.93;;;4.50;;
58412;SDS011;44209;52.952;6.790;2023-12-22T00:28:13;20.37;;;4.80;;
58412;SDS011;44209;52.952;6.790;2023-12-22T00:30:39;22.03;;;4.93;;
58412;SDS011;44209;52.952;6.790;2023-12-22T00:33:05;12.47;;;4.33;;
58412;SDS011;44209;52.952;6.790;2023-12-22T00:35:31;21.27;;;4.33;;
58412;SDS011;44209;52.952;6.790;2023-12-22T00:37:58;18.13;;;4.27;;
58412;SDS011;44209;52.952;6.790;2023-12-22T00:40:23;19.80;;;4.87;;
58412;SDS011;44209;52.952;6.790;2023-12-22T00:42:49;19.03;;;4.83;;
58412;SDS011;44209;52.952;6.790;2023-12-22T00:45:15;21.07;;;4.43;;
58412;SDS011;44209;52.952;6.790;2023-12-22T00:47:40;15.87;;;3.57;;
58412;SDS011;44209;52.952;6.790;2023-12-22T00:50:06;15.37;;;3.83;;
58412;SDS011;44209;52.952;6.790;2023-12-22T00:52:33;20.47;;;4.17;;
58412;SDS011;44209;52.952;6.790;2023-12-22T00:54:59;19.20;;;3.87;;
58412;SDS011;44209;52.952;6.790;2023-12-22T00:57:24;14.47;;;3.87;;
58412;SDS011;44209;52.952;6.790;2023-12-22T00:59:50;16.10;;;3.77;;
58412;SDS011;44209;52.952;6.790;2023-12-22T01:02:16;19.87;;;4.40;;
58412;SDS011;44209;52.952;6.790;2023-12-22T01:04:43;16.50;;;4.90;;
58412;SDS011;44209;52.952;6.790;2023-12-22T01:07:09;20.93;;;4.57;;
58412;SDS011;44209;52.952;6.790;2023-12-22T01:09:36;21.33;;;4.43;;
58412;SDS011;44209;52.952;6.790;2023-12-22T01:12:05;19.37;;;4.27;;
58412;SDS011;44209;52.952;6.790;2023-12-22T01:14:32;15.73;;;4.00;;
58412;SDS011;44209;52.952;6.790;2023-12-22T01:16:58;17.83;;;4.53;;
58412;SDS011;44209;52.952;6.790;2023-12-22T01:19:26;17.33;;;5.03;;
58412;SDS011;44209;52.952;6.790;2023-12-22T01:21:52;20.50;;;5.40;;
58412;SDS011;44209;52.952;6.790;2023-12-22T01:24:18;21.00;;;4.90;;
58412;SDS011;44209;52.952;6.790;2023-12-22T01:26:44;15.97;;;5.27;;
58412;SDS011;44209;52.952;6.790;2023-12-22T01:29:09;20.43;;;5.10;;
58412;SDS011;44209;52.952;6.790;2023-12-22T01:31:35;24.13;;;6.00;;
58412;SDS011;44209;52.952;6.790;2023-12-22T01:34:02;22.83;;;5.13;;
58412;SDS011;44209;52.952;6.790;2023-12-22T01:36:27;19.67;;;5.33;;
58412;SDS011;44209;52.952;6.790;2023-12-22T01:38:53;19.53;;;4.27;;
58412;SDS011;44209;52.952;6.790;2023-12-22T01:41:19;20.33;;;5.17;;
58412;SDS011;44209;52.952;6.790;2023-12-22T01:43:44;15.33;;;4.53;;
58412;SDS011;44209;52.952;6.790;2023-12-22T01:46:10;17.07;;;4.20;;
58412;SDS011;44209;52.952;6.790;2023-12-22T01:48:37;17.17;;;5.27;;
58412;SDS011;44209;52.952;6.790;2023-12-22T01:51:04;16.77;;;3.70;;
58412;SDS011;44209;52.952;6.790;2023-12-22T01:53:31;17.90;;;4.30;;
58412;SDS011;44209;52.952;6.790;2023-12-22T01:55:58;15.27;;;4.33;;
58412;SDS011;44209;52.952;6.790;2023-12-22T01:58:26;15.17;;;4.10;;
58412;SDS011;44209;52.952;6.790;2023-12-22T02:00:54;16.70;;;4.70;;
58412;SDS011;44209;52.952;6.790;2023-12-22T02:03:21;19.43;;;4.83;;
58412;SDS011;44209;52.952;6.790;2023-12-22T02:05:46;19.20;;;4.10;;
58412;SDS011;44209;52.952;6.790;2023-12-22T02:08:12;19.90;;;4.30;;
58412;SDS011;44209;52.952;6.790;2023-12-22T02:10:39;19.47;;;4.97;;
58412;SDS011;44209;52.952;6.790;2023-12-22T02:13:06;21.53;;;4.40;;
58412;SDS011;44209;52.952;6.790;2023-12-22T02:15:32;19.30;;;5.50;;
58412;SDS011;44209;52.952;6.790;2023-12-22T02:18:06;21.17;;;4.83;;
58412;SDS011;44209;52.952;6.790;2023-12-22T02:20:39;18.67;;;5.20;;
58412;SDS011;44209;52.952;6.790;2023-12-22T02:23:06;17.80;;;4.43;;
58412;SDS011;44209;52.952;6.790;2023-12-22T02:25:31;22.47;;;5.07;;
58412;SDS011;44209;52.952;6.790;2023-12-22T02:28:10;18.47;;;5.17;;
58412;SDS011;44209;52.952;6.790;2023-12-22T02:33:28;23.50;;;5.43;;
58412;SDS011;44209;52.952;6.790;2023-12-22T02:36:02;18.73;;;4.63;;
58412;SDS011;44209;52.952;6.790;2023-12-22T02:38:29;22.77;;;5.07;;
58412;SDS011;44209;52.952;6.790;2023-12-22T02:40:55;17.80;;;3.77;;
58412;SDS011;44209;52.952;6.790;2023-12-22T02:43:22;20.57;;;5.23;;
58412;SDS011;44209;52.952;6.790;2023-12-22T02:45:51;20.33;;;4.33;;
58412;SDS011;44209;52.952;6.790;2023-12-22T02:48:17;22.37;;;5.20;;
58412;SDS011;44209;52.952;6.790;2023-12-22T02:50:42;19.40;;;4.60;;
58412;SDS011;44209;52.952;6.790;2023-12-22T02:53:08;18.70;;;4.67;;
58412;SDS011;44209;52.952;6.790;2023-12-22T02:55:34;23.33;;;4.93;;
58412;SDS011;44209;52.952;6.790;2023-12-22T02:58:00;25.10;;;5.17;;
58412;SDS011;44209;52.952;6.790;2023-12-22T03:00:25;20.43;;;5.23;;
58412;SDS011;44209;52.952;6.790;2023-12-22T03:02:51;18.13;;;5.07;;
58412;SDS011;44209;52.952;6.790;2023-12-22T03:05:17;24.87;;;5.73;;
58412;SDS011;44209;52.952;6.790;2023-12-22T03:07:42;24.40;;;4.53;;
58412;SDS011;44209;52.952;6.790;2023-12-22T03:10:08;20.17;;;4.87;;
58412;SDS011;44209;52.952;6.790;2023-12-22T03:12:34;16.00;;;3.70;;
58412;SDS011;44209;52.952;6.790;2023-12-22T03:15:00;16.27;;;3.63;;
58412;SDS011;44209;52.952;6.790;2023-12-22T03:17:25;16.70;;;3.97;;
58412;SDS011;44209;52.952;6.790;2023-12-22T03:19:51;9.47;;;2.97;;
58412;SDS011;44209;52.952;6.790;2023-12-22T03:22:16;17.87;;;3.73;;
58412;SDS011;44209;52.952;6.790;2023-12-22T03:24:43;21.80;;;3.80;;
58412;SDS011;44209;52.952;6.790;2023-12-22T03:27:09;16.63;;;3.70;;
58412;SDS011;44209;52.952;6.790;2023-12-22T03:29:35;17.80;;;4.67;;
58412;SDS011;44209;52.952;6.790;2023-12-22T03:32:00;15.47;;;3.13;;
58412;SDS011;44209;52.952;6.790;2023-12-22T03:34:26;12.80;;;3.57;;
58412;SDS011;44209;52.952;6.790;2023-12-22T03:36:52;16.70;;;3.67;;
58412;SDS011;44209;52.952;6.790;2023-12-22T03:39:17;14.33;;;3.60;;
58412;SDS011;44209;52.952;6.790;2023-12-22T03:41:43;14.60;;;3.00;;
58412;SDS011;44209;52.952;6.790;2023-12-22T03:44:09;11.27;;;3.07;;
58412;SDS011;44209;52.952;6.790;2023-12-22T03:46:35;17.07;;;3.73;;
58412;SDS011;44209;52.952;6.790;2023-12-22T03:49:00;12.27;;;3.37;;
58412;SDS011;44209;52.952;6.790;2023-12-22T03:51:26;19.13;;;3.50;;
58412;SDS011;44209;52.952;6.790;2023-12-22T03:53:52;12.93;;;2.87;;
58412;SDS011;44209;52.952;6.790;2023-12-22T03:56:17;13.17;;;3.00;;
58412;SDS011;44209;52.952;6.790;2023-12-22T03:58:44;17.03;;;3.60;;
58412;SDS011;44209;52.952;6.790;2023-12-22T04:01:13;16.80;;;3.70;;
58412;SDS011;44209;52.952;6.790;2023-12-22T04:03:39;15.83;;;3.70;;
58412;SDS011;44209;52.952;6.790;2023-12-22T04:06:05;14.33;;;3.53;;
58412;SDS011;44209;52.952;6.790;2023-12-22T04:08:31;14.33;;;3.63;;
58412;SDS011;44209;52.952;6.790;2023-12-22T04:10:56;15.87;;;3.43;;
58412;SDS011;44209;52.952;6.790;2023-12-22T04:13:22;14.90;;;4.00;;
58412;SDS011;44209;52.952;6.790;2023-12-22T04:15:48;21.87;;;4.90;;
58412;SDS011;44209;52.952;6.790;2023-12-22T04:18:13;19.90;;;3.93;;
58412;SDS011;44209;52.952;6.790;2023-12-22T04:20:39;18.37;;;4.13;;
58412;SDS011;44209;52.952;6.790;2023-12-22T04:23:05;17.70;;;4.33;;
58412;SDS011;44209;52.952;6.790;2023-12-22T04:25:30;19.03;;;4.70;;
58412;SDS011;44209;52.952;6.790;2023-12-22T04:27:56;24.80;;;4.80;;
58412;SDS011;44209;52.952;6.790;2023-12-22T04:30:22;19.50;;;4.60;;
58412;SDS011;44209;52.952;6.790;2023-12-22T04:32:47;19.83;;;4.33;;
58412;SDS011;44209;52.952;6.790;2023-12-22T04:35:13;24.43;;;4.80;;
58412;SDS011;44209;52.952;6.790;2023-12-22T04:37:39;20.50;;;4.37;;
58412;SDS011;44209;52.952;6.790;2023-12-22T04:40:05;21.97;;;4.97;;
58412;SDS011;44209;52.952;6.790;2023-12-22T04:42:31;24.80;;;4.93;;
58412;SDS011;44209;52.952;6.790;2023-12-22T04:44:57;22.43;;;4.63;;
58412;SDS011;44209;52.952;6.790;2023-12-22T04:47:23;22.10;;;4.50;;
58412;SDS011;44209;52.952;6.790;2023-12-22T04:49:49;20.30;;;5.00;;
58412;SDS011;44209;52.952;6.790;2023-12-22T04:52:15;23.80;;;5.53;;
58412;SDS011;44209;52.952;6.790;2023-12-22T04:54:41;24.57;;;5.50;;
58412;SDS011;44209;52.952;6.790;2023-12-22T04:57:06;22.50;;;5.20;;
58412;SDS011;44209;52.952;6.790;2023-12-22T04:59:32;19.13;;;5.10;;
58412;SDS011;44209;52.952;6.790;2023-12-22T05:01:58;21.73;;;4.87;;
58412;SDS011;44209;52.952;6.790;2023-12-22T05:04:23;20.40;;;5.03;;
58412;SDS011;44209;52.952;6.790;2023-12-22T05:06:49;17.67;;;5.07;;
58412;SDS011;44209;52.952;6.790;2023-12-22T05:09:15;18.40;;;4.10;;
58412;SDS011;44209;52.952;6.790;2023-12-22T05:11:41;23.73;;;5.20;;
58412;SDS011;44209;52.952;6.790;2023-12-22T05:14:07;16.60;;;4.40;;
58412;SDS011;44209;52.952;6.790;2023-12-22T05:16:33;22.17;;;5.03;;
58412;SDS011;44209;52.952;6.790;2023-12-22T05:18:59;25.60;;;4.73;;
58412;SDS011;44209;52.952;6.790;2023-12-22T05:21:25;20.80;;;5.07;;
58412;SDS011;44209;52.952;6.790;2023-12-22T05:23:50;25.13;;;4.70;;
58412;SDS011;44209;52.952;6.790;2023-12-22T05:26:17;21.67;;;4.60;;
58412;SDS011;44209;52.952;6.790;2023-12-22T05:28:43;21.60;;;5.17;;
58412;SDS011;44209;52.952;6.790;2023-12-22T05:31:09;21.83;;;5.10;;
58412;SDS011;44209;52.952;6.790;2023-12-22T05:33:35;18.70;;;4.70;;
58412;SDS011;44209;52.952;6.790;2023-12-22T05:36:00;24.33;;;4.60;;
58412;SDS011;44209;52.952;6.790;2023-12-22T05:38:26;18.77;;;4.77;;
58412;SDS011;44209;52.952;6.790;2023-12-22T05:40:51;21.80;;;4.63;;
58412;SDS011;44209;52.952;6.790;2023-12-22T05:43:17;20.97;;;4.53;;
58412;SDS011;44209;52.952;6.790;2023-12-22T05:45:43;18.77;;;4.13;;
58412;SDS011;44209;52.952;6.790;2023-12-22T05:48:08;17.90;;;5.00;;
58412;SDS011;44209;52.952;6.790;2023-12-22T05:50:34;19.33;;;4.23;;
58412;SDS011;44209;52.952;6.790;2023-12-22T05:53:00;18.63;;;4.70;;
58412;SDS011;44209;52.952;6.790;2023-12-22T05:55:26;18.40;;;4.40;;
58412;SDS011;44209;52.952;6.790;2023-12-22T05:57:51;19.27;;;4.17;;
58412;SDS011;44209;52.952;6.790;2023-12-22T06:00:18;22.03;;;4.93;;
58412;SDS011;44209;52.952;6.790;2023-12-22T06:02:44;18.27;;;4.57;;
58412;SDS011;44209;52.952;6.790;2023-12-22T06:05:10;19.60;;;4.43;;
58412;SDS011;44209;52.952;6.790;2023-12-22T06:07:36;21.93;;;4.83;;
58412;SDS011;44209;52.952;6.790;2023-12-22T06:10:01;24.50;;;5.17;;
58412;SDS011;44209;52.952;6.790;2023-12-22T06:12:27;21.70;;;4.47;;
58412;SDS011;44209;52.952;6.790;2023-12-22T06:14:53;18.87;;;4.83;;
58412;SDS011;44209;52.952;6.790;2023-12-22T06:17:19;18.60;;;4.77;;
58412;SDS011;44209;52.952;6.790;2023-12-22T06:19:44;20.30;;;4.13;;
58412;SDS011;44209;52.952;6.790;2023-12-22T06:22:10;21.13;;;4.13;;
58412;SDS011;44209;52.952;6.790;2023-12-22T06:24:36;16.70;;;4.30;;
58412;SDS011;44209;52.952;6.790;2023-12-22T06:27:01;17.13;;;4.23;;
58412;SDS011;44209;52.952;6.790;2023-12-22T06:29:27;15.77;;;3.90;;
58412;SDS011;44209;52.952;6.790;2023-12-22T06:31:53;21.47;;;4.13;;
58412;SDS011;44209;52.952;6.790;2023-12-22T06:34:18;18.37;;;4.93;;
58412;SDS011;44209;52.952;6.790;2023-12-22T06:36:44;19.93;;;3.50;;
58412;SDS011;44209;52.952;6.790;2023-12-22T06:39:10;20.97;;;4.73;;
58412;SDS011;44209;52.952;6.790;2023-12-22T06:41:35;19.77;;;4.00;;
58412;SDS011;44209;52.952;6.790;2023-12-22T06:44:01;17.47;;;3.93;;
58412;SDS011;44209;52.952;6.790;2023-12-22T06:46:27;14.50;;;4.27;;
58412;SDS011;44209;52.952;6.790;2023-12-22T06:48:54;14.30;;;3.53;;
58412;SDS011;44209;52.952;6.790;2023-12-22T06:51:21;20.00;;;4.00;;
58412;SDS011;44209;52.952;6.790;2023-12-22T06:57:29;16.57;;;3.83;;
58412;SDS011;44209;52.952;6.790;2023-12-22T06:59:55;20.60;;;3.43;;
58412;SDS011;44209;52.952;6.790;2023-12-22T07:02:21;16.10;;;3.90;;
58412;SDS011;44209;52.952;6.790;2023-12-22T07:07:12;13.67;;;3.20;;
58412;SDS011;44209;52.952;6.790;2023-12-22T07:09:38;17.17;;;3.93;;
58412;SDS011;44209;52.952;6.790;2023-12-22T07:12:04;16.33;;;3.70;;
58412;SDS011;44209;52.952;6.790;2023-12-22T07:14:31;18.10;;;3.87;;
58412;SDS011;44209;52.952;6.790;2023-12-22T07:16:56;19.83;;;4.00;;
58412;SDS011;44209;52.952;6.790;2023-12-22T07:19:23;15.50;;;3.67;;
58412;SDS011;44209;52.952;6.790;2023-12-22T07:21:48;18.20;;;3.50;;
58412;SDS011;44209;52.952;6.790;2023-12-22T07:24:14;15.67;;;3.90;;
58412;SDS011;44209;52.952;6.790;2023-12-22T07:26:41;13.70;;;3.57;;
58412;SDS011;44209;52.952;6.790;2023-12-22T07:29:06;11.43;;;3.70;;
58412;SDS011;44209;52.952;6.790;2023-12-22T07:31:32;16.10;;;3.87;;
58412;SDS011;44209;52.952;6.790;2023-12-22T07:33:58;16.23;;;4.20;;
58412;SDS011;44209;52.952;6.790;2023-12-22T07:36:24;16.03;;;3.40;;
58412;SDS011;44209;52.952;6.790;2023-12-22T07:38:49;15.47;;;3.57;;
58412;SDS011;44209;52.952;6.790;2023-12-22T07:41:15;17.33;;;3.77;;
58412;SDS011;44209;52.952;6.790;2023-12-22T07:43:41;19.60;;;4.03;;
58412;SDS011;44209;52.952;6.790;2023-12-22T07:46:07;17.43;;;3.50;;
58412;SDS011;44209;52.952;6.790;2023-12-22T07:48:34;15.20;;;4.00;;
58412;SDS011;44209;52.952;6.790;2023-12-22T07:51:00;17.83;;;3.93;;
58412;SDS011;44209;52.952;6.790;2023-12-22T07:53:25;16.10;;;4.03;;
58412;SDS011;44209;52.952;6.790;2023-12-22T07:55:51;14.50;;;3.50;;
58412;SDS011;44209;52.952;6.790;2023-12-22T07:58:17;12.77;;;3.60;;
58412;SDS011;44209;52.952;6.790;2023-12-22T08:00:42;11.53;;;3.23;;
58412;SDS011;44209;52.952;6.790;2023-12-22T08:03:08;16.10;;;3.70;;
58412;SDS011;44209;52.952;6.790;2023-12-22T08:05:35;17.90;;;3.57;;
58412;SDS011;44209;52.952;6.790;2023-12-22T08:08:00;15.40;;;4.13;;
58412;SDS011;44209;52.952;6.790;2023-12-22T08:10:27;15.70;;;3.90;;
58412;SDS011;44209;52.952;6.790;2023-12-22T08:12:53;16.07;;;3.60;;
58412;SDS011;44209;52.952;6.790;2023-12-22T08:15:18;16.03;;;3.60;;
58412;SDS011;44209;52.952;6.790;2023-12-22T08:17:50;17.73;;;4.27;;
58412;SDS011;44209;52.952;6.790;2023-12-22T08:20:20;19.20;;;4.20;;
58412;SDS011;44209;52.952;6.790;2023-12-22T08:22:46;14.97;;;3.97;;
58412;SDS011;44209;52.952;6.790;2023-12-22T08:25:16;18.73;;;3.57;;
58412;SDS011;44209;52.952;6.790;2023-12-22T08:27:50;16.60;;;4.00;;
58412;SDS011;44209;52.952;6.790;2023-12-22T08:30:17;18.27;;;3.43;;
58412;SDS011;44209;52.952;6.790;2023-12-22T08:32:42;10.63;;;3.47;;
58412;SDS011;44209;52.952;6.790;2023-12-22T08:35:08;14.23;;;3.57;;
58412;SDS011;44209;52.952;6.790;2023-12-22T08:37:34;19.73;;;4.17;;
58412;SDS011;44209;52.952;6.790;2023-12-22T08:40:00;22.37;;;3.70;;
58412;SDS011;44209;52.952;6.790;2023-12-22T08:42:25;17.33;;;4.07;;
58412;SDS011;44209;52.952;6.790;2023-12-22T08:44:53;11.87;;;3.90;;
58412;SDS011;44209;52.952;6.790;2023-12-22T08:47:19;22.30;;;4.33;;
58412;SDS011;44209;52.952;6.790;2023-12-22T08:49:45;17.50;;;3.90;;
58412;SDS011;44209;52.952;6.790;2023-12-22T08:52:10;16.03;;;3.83;;
58412;SDS011;44209;52.952;6.790;2023-12-22T08:54:36;12.97;;;3.57;;
58412;SDS011;44209;52.952;6.790;2023-12-22T08:57:02;18.40;;;3.50;;
58412;SDS011;44209;52.952;6.790;2023-12-22T08:59:28;17.00;;;3.90;;
58412;SDS011;44209;52.952;6.790;2023-12-22T09:01:53;10.47;;;2.60;;
58412;SDS011;44209;52.952;6.790;2023-12-22T09:04:20;14.57;;;2.47;;
58412;SDS011;44209;52.952;6.790;2023-12-22T09:06:48;14.40;;;3.03;;
58412;SDS011;44209;52.952;6.790;2023-12-22T09:09:14;14.77;;;3.20;;
58412;SDS011;44209;52.952;6.790;2023-12-22T09:11:40;9.37;;;2.40;;
58412;SDS011;44209;52.952;6.790;2023-12-22T09:14:06;7.87;;;2.10;;
58412;SDS011;44209;52.952;6.790;2023-12-22T09:16:35;8.77;;;2.43;;
58412;SDS011;44209;52.952;6.790;2023-12-22T09:19:01;10.37;;;2.27;;
58412;SDS011;44209;52.952;6.790;2023-12-22T09:21:27;5.83;;;1.60;;
58412;SDS011;44209;52.952;6.790;2023-12-22T09:23:53;5.53;;;1.60;;
58412;SDS011;44209;52.952;6.790;2023-12-22T09:26:19;7.03;;;1.73;;
58412;SDS011;44209;52.952;6.790;2023-12-22T09:28:45;4.23;;;1.23;;
58412;SDS011;44209;52.952;6.790;2023-12-22T09:31:11;6.13;;;1.33;;
58412;SDS011;44209;52.952;6.790;2023-12-22T09:33:40;7.17;;;1.50;;
58412;SDS011;44209;52.952;6.790;2023-12-22T09:36:07;4.73;;;1.50;;
58412;SDS011;44209;52.952;6.790;2023-12-22T09:38:33;7.20;;;1.40;;
58412;SDS011;44209;52.952;6.790;2023-12-22T09:40:59;7.53;;;1.33;;
58412;SDS011;44209;52.952;6.790;2023-12-22T09:43:26;6.40;;;1.30;;
58412;SDS011;44209;52.952;6.790;2023-12-22T09:45:52;5.37;;;1.40;;
58412;SDS011;44209;52.952;6.790;2023-12-22T09:48:18;6.97;;;1.53;;
58412;SDS011;44209;52.952;6.790;2023-12-22T09:50:52;6.80;;;1.60;;
58412;SDS011;44209;52.952;6.790;2023-12-22T09:53:18;7.17;;;1.70;;
58412;SDS011;44209;52.952;6.790;2023-12-22T09:55:45;7.73;;;1.57;;
58412;SDS011;44209;52.952;6.790;2023-12-22T09:58:12;7.03;;;1.53;;
58412;SDS011;44209;52.952;6.790;2023-12-22T10:00:39;6.47;;;1.80;;
58412;SDS011;44209;52.952;6.790;2023-12-22T10:03:06;11.27;;;1.70;;
58412;SDS011;44209;52.952;6.790;2023-12-22T10:05:33;6.93;;;1.97;;
58412;SDS011;44209;52.952;6.790;2023-12-22T10:07:59;7.40;;;2.17;;
58412;SDS011;44209;52.952;6.790;2023-12-22T10:10:29;6.10;;;1.77;;
58412;SDS011;44209;52.952;6.790;2023-12-22T10:12:56;7.00;;;2.20;;
58412;SDS011;44209;52.952;6.790;2023-12-22T10:15:23;9.93;;;1.87;;
58412;SDS011;44209;52.952;6.790;2023-12-22T10:17:50;7.30;;;1.80;;
58412;SDS011;44209;52.952;6.790;2023-12-22T10:20:17;7.43;;;1.90;;
58412;SDS011;44209;52.952;6.790;2023-12-22T10:22:42;8.57;;;2.00;;
58412;SDS011;44209;52.952;6.790;2023-12-22T10:25:08;9.97;;;2.10;;
58412;SDS011;44209;52.952;6.790;2023-12-22T10:27:37;10.43;;;2.00;;
58412;SDS011;44209;52.952;6.790;2023-12-22T10:30:03;8.50;;;2.37;;
58412;SDS011;44209;52.952;6.790;2023-12-22T10:32:29;9.90;;;2.40;;
58412;SDS011;44209;52.952;6.790;2023-12-22T10:34:55;15.50;;;2.90;;
58412;SDS011;44209;52.952;6.790;2023-12-22T10:37:24;7.00;;;2.33;;
58412;SDS011;44209;52.952;6.790;2023-12-22T10:39:53;10.10;;;2.47;;
58412;SDS011;44209;52.952;6.790;2023-12-22T10:42:20;8.47;;;2.20;;
58412;SDS011;44209;52.952;6.790;2023-12-22T10:44:46;8.13;;;2.43;;
58412;SDS011;44209;52.952;6.790;2023-12-22T10:47:13;10.73;;;2.70;;
58412;SDS011;44209;52.952;6.790;2023-12-22T10:49:39;10.37;;;2.73;;
58412;SDS011;44209;52.952;6.790;2023-12-22T10:52:04;13.73;;;2.60;;
58412;SDS011;44209;52.952;6.790;2023-12-22T10:54:30;11.00;;;2.47;;
58412;SDS011;44209;52.952;6.790;2023-12-22T10:57:00;12.07;;;2.67;;
58412;SDS011;44209;52.952;6.790;2023-12-22T10:59:27;14.83;;;3.13;;
58412;SDS011;44209;52.952;6.790;2023-12-22T11:01:56;8.47;;;2.40;;
58412;SDS011;44209;52.952;6.790;2023-12-22T11:04:25;11.67;;;2.60;;
58412;SDS011;44209;52.952;6.790;2023-12-22T11:06:59;15.90;;;2.83;;
58412;SDS011;44209;52.952;6.790;2023-12-22T11:09:28;14.37;;;2.57;;
58412;SDS011;44209;52.952;6.790;2023-12-22T11:12:00;13.37;;;3.07;;
58412;SDS011;44209;52.952;6.790;2023-12-22T11:14:27;17.93;;;3.40;;
58412;SDS011;44209;52.952;6.790;2023-12-22T11:16:56;10.47;;;3.53;;
58412;SDS011;44209;52.952;6.790;2023-12-22T11:19:24;16.37;;;3.27;;
58412;SDS011;44209;52.952;6.790;2023-12-22T11:21:52;11.47;;;2.50;;
58412;SDS011;44209;52.952;6.790;2023-12-22T11:24:20;13.47;;;3.40;;
58412;SDS011;44209;52.952;6.790;2023-12-22T11:26:46;10.00;;;2.80;;
58412;SDS011;44209;52.952;6.790;2023-12-22T11:29:14;12.20;;;2.80;;
58412;SDS011;44209;52.952;6.790;2023-12-22T11:31:43;13.27;;;2.67;;
58412;SDS011;44209;52.952;6.790;2023-12-22T11:34:12;12.37;;;3.33;;
58412;SDS011;44209;52.952;6.790;2023-12-22T11:36:41;16.90;;;3.33;;
58412;SDS011;44209;52.952;6.790;2023-12-22T11:39:13;17.67;;;3.23;;
58412;SDS011;44209;52.952;6.790;2023-12-22T11:41:39;12.47;;;2.90;;
58412;SDS011;44209;52.952;6.790;2023-12-22T11:44:06;14.27;;;2.90;;
58412;SDS011;44209;52.952;6.790;2023-12-22T11:46:32;15.77;;;3.07;;
58412;SDS011;44209;52.952;6.790;2023-12-22T11:48:59;14.50;;;3.53;;
58412;SDS011;44209;52.952;6.790;2023-12-22T11:51:24;14.27;;;2.90;;
58412;SDS011;44209;52.952;6.790;2023-12-22T11:53:57;12.07;;;2.90;;
58412;SDS011;44209;52.952;6.790;2023-12-22T11:56:22;12.73;;;2.97;;
58412;SDS011;44209;52.952;6.790;2023-12-22T11:58:51;9.30;;;2.37;;
58412;SDS011;44209;52.952;6.790;2023-12-22T12:01:19;12.43;;;2.83;;
58412;SDS011;44209;52.952;6.790;2023-12-22T12:03:55;15.10;;;3.00;;
58412;SDS011;44209;52.952;6.790;2023-12-22T12:06:31;9.13;;;2.30;;
58412;SDS011;44209;52.952;6.790;2023-12-22T12:09:03;9.30;;;2.40;;
58412;SDS011;44209;52.952;6.790;2023-12-22T12:14:26;13.20;;;2.90;;
58412;SDS011;44209;52.952;6.790;2023-12-22T12:16:57;13.63;;;2.80;;
58412;SDS011;44209;52.952;6.790;2023-12-22T12:19:34;7.17;;;2.57;;
58412;SDS011;44209;52.952;6.790;2023-12-22T12:22:00;8.47;;;2.00;;
58412;SDS011;44209;52.952;6.790;2023-12-22T12:24:26;9.37;;;2.67;;
58412;SDS011;44209;52.952;6.790;2023-12-22T12:26:52;10.33;;;2.77;;
58412;SDS011;44209;52.952;6.790;2023-12-22T12:29:18;8.70;;;2.80;;
58412;SDS011;44209;52.952;6.790;2023-12-22T12:31:45;11.93;;;2.40;;
58412;SDS011;44209;52.952;6.790;2023-12-22T12:34:11;6.20;;;2.23;;
58412;SDS011;44209;52.952;6.790;2023-12-22T12:36:39;12.80;;;2.63;;
58412;SDS011;44209;52.952;6.790;2023-12-22T12:41:32;11.97;;;2.30;;
58412;SDS011;44209;52.952;6.790;2023-12-22T12:44:04;12.32;;;2.50;;
58412;SDS011;44209;52.952;6.790;2023-12-22T12:46:34;9.30;;;2.40;;
58412;SDS011;44209;52.952;6.790;2023-12-22T12:49:07;17.13;;;2.90;;
58412;SDS011;44209;52.952;6.790;2023-12-22T12:51:40;12.30;;;2.37;;
58412;SDS011;44209;52.952;6.790;2023-12-22T12:54:08;13.18;;;2.58;;
58412;SDS011;44209;52.952;6.790;2023-12-22T12:56:42;11.07;;;2.20;;
58412;SDS011;44209;52.952;6.790;2023-12-22T12:59:13;11.97;;;2.80;;
58412;SDS011;44209;52.952;6.790;2023-12-22T13:01:44;10.00;;;2.75;;
58412;SDS011;44209;52.952;6.790;2023-12-22T13:04:11;10.63;;;2.40;;
58412;SDS011;44209;52.952;6.790;2023-12-22T13:06:46;12.80;;;2.63;;
58412;SDS011;44209;52.952;6.790;2023-12-22T13:09:12;12.83;;;2.30;;
58412;SDS011;44209;52.952;6.790;2023-12-22T13:11:39;10.23;;;2.40;;
58412;SDS011;44209;52.952;6.790;2023-12-22T13:14:07;10.37;;;3.00;;
58412;SDS011;44209;52.952;6.790;2023-12-22T13:16:36;13.63;;;2.53;;
58412;SDS011;44209;52.952;6.790;2023-12-22T13:19:05;12.87;;;2.53;;
58412;SDS011;44209;52.952;6.790;2023-12-22T13:21:31;8.87;;;2.13;;
58412;SDS011;44209;52.952;6.790;2023-12-22T13:24:15;11.40;;;2.87;;
58412;SDS011;44209;52.952;6.790;2023-12-22T13:26:41;12.23;;;2.57;;
58412;SDS011;44209;52.952;6.790;2023-12-22T13:29:08;9.63;;;2.50;;
58412;SDS011;44209;52.952;6.790;2023-12-22T13:31:38;11.43;;;2.30;;
58412;SDS011;44209;52.952;6.790;2023-12-22T13:34:12;9.83;;;2.43;;
58412;SDS011;44209;52.952;6.790;2023-12-22T13:36:41;8.40;;;2.30;;
58412;SDS011;44209;52.952;6.790;2023-12-22T13:39:08;9.47;;;2.13;;
58412;SDS011;44209;52.952;6.790;2023-12-22T13:41:35;9.67;;;2.10;;
58412;SDS011;44209;52.952;6.790;2023-12-22T13:44:05;11.37;;;2.70;;
58412;SDS011;44209;52.952;6.790;2023-12-22T13:46:31;8.10;;;2.27;;
58412;SDS011;44209;52.952;6.790;2023-12-22T13:49:00;12.10;;;2.90;;
58412;SDS011;44209;52.952;6.790;2023-12-22T13:51:44;11.30;;;2.53;;
58412;SDS011;44209;52.952;6.790;2023-12-22T13:54:10;8.90;;;2.50;;
58412;SDS011;44209;52.952;6.790;2023-12-22T13:56:36;13.30;;;2.80;;
58412;SDS011;44209;52.952;6.790;2023-12-22T13:59:05;11.97;;;2.53;;
58412;SDS011;44209;52.952;6.790;2023-12-22T14:01:31;16.57;;;3.83;;
58412;SDS011;44209;52.952;6.790;2023-12-22T14:03:58;14.30;;;2.77;;
58412;SDS011;44209;52.952;6.790;2023-12-22T14:06:27;11.73;;;2.70;;
58412;SDS011;44209;52.952;6.790;2023-12-22T14:08:54;11.27;;;2.27;;
58412;SDS011;44209;52.952;6.790;2023-12-22T14:11:20;13.93;;;2.60;;
58412;SDS011;44209;52.952;6.790;2023-12-22T14:13:46;9.67;;;2.37;;
58412;SDS011;44209;52.952;6.790;2023-12-22T14:16:12;11.30;;;2.03;;
58412;SDS011;44209;52.952;6.790;2023-12-22T14:18:40;9.37;;;2.33;;
58412;SDS011;44209;52.952;6.790;2023-12-22T14:21:06;9.67;;;2.40;;
58412;SDS011;44209;52.952;6.790;2023-12-22T14:23:32;15.43;;;2.63;;
58412;SDS011;44209;52.952;6.790;2023-12-22T14:25:57;13.00;;;2.50;;
58412;SDS011;44209;52.952;6.790;2023-12-22T14:28:23;12.43;;;2.50;;
58412;SDS011;44209;52.952;6.790;2023-12-22T14:30:49;11.83;;;2.23;;
58412;SDS011;44209;52.952;6.790;2023-12-22T14:33:15;10.30;;;2.10;;
58412;SDS011;44209;52.952;6.790;2023-12-22T14:35:41;11.70;;;1.97;;
58412;SDS011;44209;52.952;6.790;2023-12-22T14:38:06;9.60;;;2.00;;
58412;SDS011;44209;52.952;6.790;2023-12-22T14:40:32;6.93;;;1.77;;
58412;SDS011;44209;52.952;6.790;2023-12-22T14:42:58;8.07;;;1.63;;
58412;SDS011;44209;52.952;6.790;2023-12-22T14:45:26;7.40;;;1.90;;
58412;SDS011;44209;52.952;6.790;2023-12-22T14:47:52;5.43;;;1.60;;